createdAt,value
2022-09-20T00:01:42.782Z,100.00
2022-09-20T00:04:10.618Z,100.00
2022-09-20T00:06:38.366Z,100.00
2022-09-20T00:09:07.012Z,100.00
2022-09-20T00:11:36.150Z,100.00
2022-09-20T00:14:06.214Z,100.00
2022-09-20T00:16:36.506Z,100.00
2022-09-20T00:19:05.577Z,100.00
2022-09-20T00:21:37.826Z,100.00
2022-09-20T00:24:06.309Z,100.00
2022-09-20T00:26:33.811Z,100.00
2022-09-20T00:29:01.774Z,100.00
2022-09-20T00:31:29.314Z,100.00
2022-09-20T00:34:18.888Z,100.00
2022-09-20T00:36:46.731Z,100.00
2022-09-20T00:39:15.464Z,100.00
2022-09-20T00:41:43.705Z,100.00
2022-09-20T00:44:44.073Z,100.00
2022-09-20T00:47:55.532Z,100.00
2022-09-20T00:50:44.795Z,100.00
2022-09-20T00:53:15.229Z,100.00
2022-09-20T00:55:48.553Z,100.00
2022-09-20T00:58:19.338Z,100.00
2022-09-20T01:00:48.875Z,100.00
2022-09-20T01:03:22.948Z,100.00
2022-09-20T01:05:52.856Z,100.00
2022-09-20T01:08:22.296Z,100.00
2022-09-20T01:10:50.114Z,100.00
2022-09-20T01:13:17.655Z,100.00
2022-09-20T01:15:48.370Z,100.00
2022-09-20T01:18:17.005Z,100.00
2022-09-20T01:20:46.885Z,100.00
2022-09-20T01:23:30.520Z,100.00
2022-09-20T01:26:29.991Z,100.00
2022-09-20T01:29:33.672Z,100.00
2022-09-20T01:32:08.603Z,100.00
2022-09-20T01:34:45.754Z,100.00
2022-09-20T01:37:38.855Z,100.00
2022-09-20T01:40:35.814Z,100.00
2022-09-20T01:43:25.460Z,100.00
2022-09-20T01:45:54.787Z,100.00
2022-09-20T01:48:37.880Z,100.00
2022-09-20T01:51:50.858Z,100.00
2022-09-20T01:54:58.212Z,100.00
2022-09-20T01:57:38.320Z,100.00
2022-09-20T02:00:32.102Z,100.00
2022-09-20T02:03:57.465Z,100.00
2022-09-20T02:06:46.623Z,100.00
2022-09-20T02:09:36.982Z,100.00
2022-09-20T02:12:33.790Z,100.00
2022-09-20T02:15:07.271Z,100.00
2022-09-20T02:18:00.492Z,100.00
2022-09-20T02:20:33.268Z,100.00
2022-09-20T02:23:07.211Z,100.00
2022-09-20T02:25:57.767Z,100.00
2022-09-20T02:28:53.135Z,100.00
2022-09-20T02:31:40.159Z,100.00
2022-09-20T02:34:52.074Z,100.00
2022-09-20T02:37:41.450Z,100.00
2022-09-20T02:40:52.384Z,100.00
2022-09-20T02:43:38.848Z,100.00
2022-09-20T02:46:24.756Z,100.00
2022-09-20T02:49:11.428Z,100.00
2022-09-20T02:52:04.181Z,100.00
2022-09-20T02:54:51.203Z,100.00
2022-09-20T02:57:57.473Z,100.00
2022-09-20T03:00:29.291Z,100.00
2022-09-20T03:03:19.015Z,100.00
2022-09-20T03:06:07.040Z,100.00
2022-09-20T03:08:37.678Z,100.00
2022-09-20T03:11:47.243Z,100.00
2022-09-20T03:14:29.923Z,100.00
2022-09-20T03:17:09.608Z,100.00
2022-09-20T03:20:20.089Z,100.00
2022-09-20T03:23:10.609Z,100.00
2022-09-20T03:26:15.640Z,100.00
2022-09-20T03:29:17.087Z,100.00
2022-09-20T03:32:19.816Z,100.00
2022-09-20T03:35:09.898Z,100.00
2022-09-20T03:37:52.758Z,100.00
2022-09-20T03:40:37.561Z,100.00
2022-09-20T03:43:33.426Z,100.00
2022-09-20T03:46:19.784Z,100.00
2022-09-20T03:48:56.405Z,100.00
2022-09-20T03:51:33.767Z,100.00
2022-09-20T03:54:17.362Z,100.00
2022-09-20T03:57:06.260Z,100.00
2022-09-20T03:59:34.233Z,100.00
2022-09-20T04:02:12.297Z,100.00
2022-09-20T04:04:48.514Z,100.00
2022-09-20T04:07:23.828Z,100.00
2022-09-20T04:10:13.792Z,100.00
2022-09-20T04:13:24.479Z,100.00
2022-09-20T04:15:54.978Z,100.00
2022-09-20T04:18:36.535Z,100.00
2022-09-20T04:21:23.911Z,100.00
2022-09-20T04:23:56.597Z,100.00
2022-09-20T04:26:30.557Z,100.00
2022-09-20T04:29:34.696Z,100.00
2022-09-20T04:32:33.147Z,100.00
2022-09-20T04:35:49.436Z,100.00
2022-09-20T04:38:20.428Z,100.00
2022-09-20T04:41:06.934Z,100.00
2022-09-20T04:44:16.490Z,100.00
2022-09-20T04:47:15.647Z,100.00
2022-09-20T04:50:06.348Z,100.00
2022-09-20T04:53:11.315Z,100.00
2022-09-20T04:55:59.161Z,100.00
2022-09-20T04:58:51.601Z,100.00
2022-09-20T05:01:37.961Z,100.00
2022-09-20T05:04:38.361Z,100.00
2022-09-20T05:07:08.796Z,100.00
2022-09-20T05:09:57.644Z,100.00
2022-09-20T05:17:15.768Z,100.00
2022-09-20T05:20:12.624Z,100.00
2022-09-20T05:23:02.128Z,100.00
2022-09-20T05:25:47.743Z,100.00
2022-09-20T05:28:16.077Z,100.00
2022-09-20T05:30:51.122Z,100.00
2022-09-20T05:33:49.927Z,100.00
2022-09-20T05:36:42.449Z,100.00
2022-09-20T05:39:31.872Z,100.00
2022-09-20T05:42:10.455Z,100.00
2022-09-20T05:44:45.360Z,100.00
2022-09-20T05:47:22.346Z,100.00
2022-09-20T05:50:09.043Z,100.00
2022-09-20T05:52:52.426Z,100.00
2022-09-20T05:55:37.993Z,100.00
2022-09-20T05:58:34.424Z,100.00
2022-09-20T06:01:34.220Z,100.00
2022-09-20T06:04:22.765Z,100.00
2022-09-20T06:07:28.428Z,100.00
2022-09-20T06:10:19.222Z,100.00
2022-09-20T06:12:57.379Z,100.00
2022-09-20T06:15:48.323Z,100.00
2022-09-20T06:18:45.783Z,100.00
2022-09-20T06:41:37.148Z,87.36
2022-09-20T06:44:17.152Z,95.49
2022-09-20T06:46:57.247Z,99.57
2022-09-20T06:49:30.828Z,100.00
2022-09-20T06:52:13.506Z,100.00
2022-09-20T06:54:47.882Z,100.00
2022-09-20T06:57:39.087Z,100.00
2022-09-20T07:00:16.826Z,100.00
2022-09-20T07:02:49.464Z,100.00
2022-09-20T07:05:24.227Z,100.00
2022-09-20T07:08:02.475Z,100.00
2022-09-20T07:10:48.832Z,100.00
2022-09-20T07:13:23.231Z,96.33
2022-09-20T07:16:43.719Z,97.02
2022-09-20T07:19:21.794Z,100.00
2022-09-20T07:21:55.220Z,98.80
2022-09-20T07:24:26.587Z,100.00
2022-09-20T07:26:59.064Z,95.77
2022-09-20T07:29:29.873Z,92.27
2022-09-20T07:32:04.703Z,89.74
2022-09-20T07:34:35.874Z,92.82
2022-09-20T07:37:06.826Z,91.89
2022-09-20T07:39:36.386Z,89.99
2022-09-20T07:42:06.655Z,91.78
2022-09-20T07:44:37.503Z,92.17
2022-09-20T07:47:15.311Z,89.38
2022-09-20T07:49:45.987Z,85.10
2022-09-20T07:52:17.212Z,87.45
2022-09-20T07:54:52.700Z,90.96
2022-09-20T07:57:26.186Z,86.84
2022-09-20T08:00:01.973Z,87.47
2022-09-20T08:03:00.614Z,85.38
2022-09-20T08:05:35.144Z,89.43
2022-09-20T08:08:05.000Z,86.84
2022-09-20T08:10:34.885Z,87.36
2022-09-20T08:16:07.093Z,87.44
2022-09-20T08:18:41.108Z,89.56
2022-09-20T08:21:19.944Z,84.90
2022-09-20T08:23:56.993Z,85.74
2022-09-20T08:26:32.417Z,85.35
2022-09-20T08:29:06.862Z,86.11
2022-09-20T08:31:43.182Z,84.47
2022-09-20T08:37:09.051Z,87.72
2022-09-20T08:42:36.709Z,83.86
2022-09-20T08:45:40.655Z,87.56
2022-09-20T08:48:19.964Z,87.22
2022-09-20T08:51:05.607Z,85.09
2022-09-20T08:53:38.847Z,85.87
2022-09-20T08:56:15.937Z,86.75
2022-09-20T08:58:49.334Z,85.47
2022-09-20T09:01:23.508Z,84.58
2022-09-20T09:04:23.612Z,82.16
2022-09-20T09:06:56.340Z,85.03
2022-09-20T09:09:45.367Z,79.23
2022-09-20T09:12:32.061Z,78.18
2022-09-20T09:15:24.323Z,79.77
2022-09-20T09:17:56.467Z,78.63
2022-09-20T09:20:47.623Z,77.95
2022-09-20T09:23:39.954Z,79.10
2022-09-20T09:26:36.974Z,75.86
2022-09-20T09:29:28.323Z,76.62
2022-09-20T09:32:29.435Z,74.60
2022-09-20T09:35:27.607Z,76.80
2022-09-20T09:38:07.002Z,76.88
2022-09-20T09:41:04.407Z,76.61
2022-09-20T09:43:41.077Z,75.25
2022-09-20T09:46:25.043Z,76.82
2022-09-20T09:49:18.482Z,76.73
2022-09-20T09:52:07.997Z,73.57
2022-09-20T09:54:52.729Z,71.07
2022-09-20T09:58:02.287Z,70.30
2022-09-20T10:00:37.464Z,69.32
2022-09-20T10:03:27.495Z,68.11
2022-09-20T10:06:36.654Z,66.01
2022-09-20T10:09:52.902Z,70.76
2022-09-20T10:12:45.329Z,71.14
2022-09-20T10:15:25.440Z,74.06
2022-09-20T10:18:05.444Z,73.95
2022-09-20T10:20:53.508Z,78.25
2022-09-20T10:24:03.154Z,74.22
2022-09-20T10:26:55.665Z,76.98
2022-09-20T10:29:48.450Z,78.13
2022-09-20T10:32:46.481Z,79.91
2022-09-20T10:36:07.346Z,85.57
2022-09-20T10:39:04.796Z,86.46
2022-09-20T10:42:19.300Z,86.88
2022-09-20T10:44:59.323Z,87.14
2022-09-20T10:47:34.656Z,83.67
2022-09-20T10:50:15.168Z,79.39
2022-09-20T10:53:20.965Z,75.36
2022-09-20T10:56:10.070Z,75.31
2022-09-20T10:58:59.400Z,75.43
2022-09-20T11:02:04.044Z,71.47
2022-09-20T11:04:36.184Z,67.84
2022-09-20T11:07:05.887Z,69.61
2022-09-20T11:09:41.233Z,69.24
2022-09-20T11:12:22.360Z,66.43
2022-09-20T11:15:10.571Z,69.31
2022-09-20T11:17:50.152Z,71.65
2022-09-20T11:20:33.074Z,70.43
2022-09-20T11:23:33.244Z,69.71
2022-09-20T11:26:13.035Z,62.58
2022-09-20T11:28:45.083Z,57.53
2022-09-20T11:31:28.730Z,56.39
2022-09-20T11:34:13.230Z,52.69
2022-09-20T11:36:54.782Z,48.55
2022-09-20T11:39:29.701Z,49.02
2022-09-20T11:42:00.831Z,48.43
2022-09-20T11:44:34.262Z,49.44
2022-09-20T11:47:12.345Z,51.80
2022-09-20T11:49:55.252Z,53.18
2022-09-20T11:52:40.078Z,52.94
2022-09-20T11:55:36.456Z,53.77
2022-09-20T11:58:17.241Z,54.69
2022-09-20T12:00:48.267Z,55.62
2022-09-20T12:03:40.302Z,58.56
2022-09-20T12:06:28.174Z,55.87
2022-09-20T12:08:58.929Z,54.37
2022-09-20T12:12:03.388Z,54.26
2022-09-20T12:14:42.448Z,53.51
2022-09-20T12:18:09.832Z,53.81
2022-09-20T12:21:16.085Z,56.19
2022-09-20T12:25:16.547Z,48.44
2022-09-20T12:28:03.828Z,50.39
2022-09-20T12:30:43.153Z,53.21
2022-09-20T12:34:07.590Z,64.80
2022-09-20T12:37:27.936Z,65.88
2022-09-20T12:41:08.152Z,74.32
2022-09-20T12:45:03.412Z,74.80
2022-09-20T12:48:25.353Z,77.58
2022-09-20T12:51:57.878Z,83.75
2022-09-20T12:55:11.227Z,86.47
2022-09-20T13:03:00.068Z,73.88
2022-09-20T13:06:22.970Z,72.54
2022-09-20T13:09:58.555Z,64.42
2022-09-20T13:13:26.424Z,68.12
2022-09-20T13:17:08.842Z,66.08
2022-09-20T13:19:59.256Z,66.01
2022-09-20T13:23:07.509Z,63.49
2022-09-20T13:26:42.291Z,63.60
2022-09-20T13:30:03.908Z,63.73
2022-09-20T13:36:12.444Z,64.13
2022-09-20T13:39:43.188Z,65.71
2022-09-20T13:46:35.464Z,58.02
2022-09-20T13:50:12.219Z,59.28
2022-09-20T13:53:03.278Z,61.34
2022-09-20T13:56:12.702Z,57.25
2022-09-20T13:59:25.501Z,59.93
2022-09-20T14:02:48.944Z,64.31
2022-09-20T14:06:20.469Z,65.43
2022-09-20T14:12:44.696Z,64.78
2022-09-20T14:15:32.334Z,63.69
2022-09-20T14:18:25.455Z,66.60
2022-09-20T14:21:11.650Z,68.75
2022-09-20T14:24:11.093Z,69.42
2022-09-20T14:27:32.214Z,70.41
2022-09-20T14:30:33.494Z,72.43
2022-09-20T14:33:46.593Z,72.19
2022-09-20T14:37:04.926Z,75.23
2022-09-20T14:40:46.066Z,74.41
2022-09-20T14:44:57.212Z,75.10
2022-09-20T14:48:20.150Z,72.48
2022-09-20T14:51:36.450Z,68.03
2022-09-20T14:55:06.142Z,68.26
2022-09-20T14:58:47.127Z,68.96
2022-09-20T15:01:27.811Z,68.04
2022-09-20T15:04:34.766Z,68.78
2022-09-20T15:07:15.465Z,69.35
2022-09-20T15:09:58.014Z,70.29
2022-09-20T15:12:37.131Z,70.40
2022-09-20T15:15:18.273Z,70.76
2022-09-20T15:17:57.722Z,71.72
2022-09-20T15:20:39.795Z,73.74
2022-09-20T15:23:56.915Z,71.70
2022-09-20T15:26:41.400Z,73.38
2022-09-20T15:29:35.388Z,73.71
2022-09-20T15:32:10.787Z,73.01
2022-09-20T15:34:59.143Z,75.20
2022-09-20T15:37:39.760Z,72.60
2022-09-20T15:40:35.476Z,72.31
2022-09-20T15:43:07.851Z,73.73
2022-09-20T15:49:40.313Z,77.38
2022-09-20T15:52:19.107Z,78.19
2022-09-20T15:55:05.609Z,78.29
2022-09-20T16:00:48.627Z,78.47
2022-09-20T16:03:36.243Z,77.75
2022-09-20T16:06:19.320Z,84.25
2022-09-20T16:09:10.780Z,78.81
2022-09-20T16:12:01.853Z,76.97
2022-09-20T16:14:43.411Z,75.10
2022-09-20T16:20:56.273Z,78.04
2022-09-20T16:23:49.622Z,77.57
2022-09-20T16:26:31.184Z,77.02
2022-09-20T16:29:30.933Z,77.60
2022-09-20T16:32:11.783Z,78.33
2022-09-20T16:34:49.569Z,78.50
2022-09-20T16:37:53.378Z,79.10
2022-09-20T16:40:58.214Z,87.04
2022-09-20T16:44:16.142Z,89.42
2022-09-20T16:47:03.171Z,89.24
2022-09-20T16:49:51.161Z,91.68
2022-09-20T16:52:33.064Z,92.57
2022-09-20T16:55:37.368Z,92.48
2022-09-20T16:58:48.452Z,94.72
2022-09-20T17:01:36.352Z,95.28
2022-09-20T17:04:15.354Z,96.89
2022-09-20T17:06:57.385Z,95.47
2022-09-20T17:09:53.638Z,95.81
2022-09-20T17:12:34.585Z,99.07
2022-09-20T17:15:22.301Z,100.00
2022-09-20T17:18:15.400Z,100.00
2022-09-20T17:20:56.102Z,100.00
2022-09-20T17:24:06.342Z,100.00
2022-09-20T17:30:18.058Z,100.00
2022-09-20T17:33:11.411Z,100.00
2022-09-20T17:35:55.546Z,100.00
2022-09-20T17:38:38.678Z,100.00
2022-09-20T17:44:17.961Z,100.00
2022-09-20T17:47:33.630Z,99.95
2022-09-20T17:50:03.752Z,97.79
2022-09-20T17:53:31.056Z,95.48
2022-09-20T17:56:26.529Z,96.94
2022-09-20T17:59:09.985Z,95.76
2022-09-20T18:06:23.105Z,100.00
2022-09-20T18:12:05.473Z,97.01
2022-09-20T18:14:45.975Z,98.45
2022-09-20T18:17:21.885Z,99.52
2022-09-20T18:20:09.732Z,99.17
2022-09-20T18:22:42.245Z,100.00
2022-09-20T18:25:18.742Z,99.72
2022-09-20T18:27:58.235Z,99.62
2022-09-20T18:30:42.707Z,98.43
2022-09-20T18:33:21.733Z,97.68
2022-09-20T18:35:58.760Z,98.78
2022-09-20T18:38:33.262Z,96.62
2022-09-20T18:41:17.966Z,96.19
2022-09-20T18:44:02.261Z,98.24
2022-09-20T18:47:11.353Z,96.58
2022-09-20T18:50:18.085Z,95.02
2022-09-20T18:53:08.953Z,96.01
2022-09-20T18:55:57.156Z,97.45
2022-09-20T18:58:48.915Z,97.63
2022-09-20T19:01:57.979Z,100.00
2022-09-20T19:05:24.754Z,100.00
2022-09-20T19:08:40.191Z,100.00
2022-09-20T19:11:25.919Z,100.00
2022-09-20T19:15:00.489Z,100.00
2022-09-20T19:18:04.920Z,100.00
2022-09-20T19:20:59.199Z,100.00
2022-09-20T19:24:05.868Z,100.00
2022-09-20T19:29:31.287Z,100.00
2022-09-20T19:32:15.201Z,100.00
2022-09-20T19:35:23.336Z,100.00
2022-09-20T19:38:18.088Z,100.00
2022-09-20T19:41:13.651Z,100.00
2022-09-20T19:44:22.096Z,100.00
2022-09-20T19:47:27.684Z,100.00
2022-09-20T19:50:25.444Z,100.00
2022-09-20T19:52:58.154Z,100.00
2022-09-20T19:55:27.973Z,100.00
2022-09-20T19:57:55.932Z,100.00
2022-09-20T20:00:24.418Z,100.00
2022-09-20T20:02:56.320Z,100.00
2022-09-20T20:05:29.113Z,100.00
2022-09-20T20:08:15.548Z,100.00
2022-09-20T20:11:12.462Z,100.00
2022-09-20T20:14:13.327Z,100.00
2022-09-20T20:16:50.857Z,100.00
2022-09-20T20:19:51.831Z,100.00
2022-09-20T20:23:06.539Z,100.00
2022-09-20T20:26:12.556Z,100.00
2022-09-20T20:28:44.409Z,100.00
2022-09-20T20:31:13.684Z,100.00
2022-09-20T20:33:44.053Z,100.00
2022-09-20T20:36:12.647Z,100.00
2022-09-20T20:38:42.797Z,100.00
2022-09-20T20:41:14.628Z,100.00
2022-09-20T20:43:49.789Z,100.00
2022-09-20T20:46:21.108Z,100.00
2022-09-20T20:48:58.340Z,100.00
2022-09-20T20:51:29.722Z,100.00
2022-09-20T20:54:03.835Z,100.00
2022-09-20T20:56:45.886Z,100.00
2022-09-20T20:59:25.949Z,100.00
2022-09-20T21:05:17.066Z,100.00
2022-09-20T21:07:58.479Z,100.00
2022-09-20T21:10:41.506Z,100.00
2022-09-20T21:13:13.662Z,100.00
2022-09-20T21:16:12.976Z,100.00
2022-09-20T21:19:09.843Z,100.00
2022-09-20T21:22:35.151Z,100.00
2022-09-20T21:25:12.331Z,100.00
2022-09-20T21:28:14.613Z,100.00
2022-09-20T21:31:06.402Z,100.00
2022-09-20T21:34:03.909Z,100.00
2022-09-20T21:36:35.789Z,100.00
2022-09-20T21:39:10.493Z,100.00
2022-09-20T21:41:42.540Z,100.00
2022-09-20T21:44:16.775Z,100.00
2022-09-20T21:47:02.940Z,100.00
2022-09-20T21:49:48.905Z,100.00
2022-09-20T21:52:28.227Z,100.00
2022-09-20T21:55:28.434Z,100.00
2022-09-20T21:58:10.627Z,100.00
2022-09-20T22:00:47.708Z,100.00
2022-09-20T22:03:22.872Z,100.00
2022-09-20T22:06:18.950Z,100.00
2022-09-20T22:09:18.562Z,100.00
2022-09-20T22:11:51.426Z,100.00
2022-09-20T22:14:22.075Z,100.00
2022-09-20T22:17:15.129Z,100.00
2022-09-20T22:20:35.823Z,100.00
2022-09-20T22:23:09.541Z,100.00
2022-09-20T22:25:46.438Z,100.00
2022-09-20T22:28:28.626Z,100.00
2022-09-20T22:31:15.706Z,100.00
2022-09-20T22:34:16.966Z,100.00
2022-09-20T22:36:50.831Z,100.00
2022-09-20T22:39:24.982Z,100.00
2022-09-20T22:42:00.153Z,100.00
2022-09-20T22:44:31.562Z,100.00
2022-09-20T22:47:08.916Z,100.00
2022-09-20T22:49:43.266Z,100.00
2022-09-20T22:52:19.948Z,100.00
2022-09-20T22:54:54.475Z,100.00
2022-09-20T22:57:38.632Z,100.00
2022-09-20T23:00:35.673Z,100.00
2022-09-20T23:03:09.461Z,100.00
2022-09-20T23:05:42.927Z,100.00
2022-09-20T23:08:51.834Z,100.00
2022-09-20T23:11:27.097Z,100.00
2022-09-20T23:14:35.632Z,100.00
2022-09-20T23:17:15.506Z,100.00
2022-09-20T23:19:49.359Z,100.00
2022-09-20T23:22:31.924Z,100.00
2022-09-20T23:25:06.913Z,100.00
2022-09-20T23:28:01.307Z,100.00
2022-09-20T23:30:34.008Z,100.00
2022-09-20T23:33:03.529Z,100.00
2022-09-20T23:35:44.753Z,100.00
2022-09-20T23:38:21.313Z,100.00
2022-09-20T23:40:54.587Z,100.00
2022-09-20T23:43:24.229Z,100.00
2022-09-20T23:46:00.231Z,100.00
2022-09-20T23:48:29.904Z,100.00
2022-09-20T23:51:01.866Z,100.00
2022-09-20T23:53:42.443Z,100.00
2022-09-20T23:56:24.885Z,100.00
2022-09-20T23:58:53.300Z,100.00
